createdAt,value
2022-09-06T00:01:50.459Z,100232.50
2022-09-06T00:04:17.266Z,100229.84
2022-09-06T00:06:43.719Z,100232.50
2022-09-06T00:09:10.181Z,100235.00
2022-09-06T00:11:36.776Z,100234.16
2022-09-06T00:14:03.290Z,100239.28
2022-09-06T00:16:30.600Z,100245.66
2022-09-06T00:18:57.552Z,100229.09
2022-09-06T00:21:26.607Z,100236.34
2022-09-06T00:23:53.780Z,100238.16
2022-09-06T00:26:21.780Z,100244.69
2022-09-06T00:28:48.853Z,100242.72
2022-09-06T00:31:20.900Z,100252.72
2022-09-06T00:33:47.597Z,100240.91
2022-09-06T00:36:14.685Z,100238.69
2022-09-06T00:38:42.167Z,100234.81
2022-09-06T00:41:11.949Z,100227.38
2022-09-06T00:43:39.120Z,100231.97
2022-09-06T00:46:08.199Z,100230.16
2022-09-06T00:48:37.622Z,100233.63
2022-09-06T00:51:07.804Z,100231.97
2022-09-06T00:53:34.528Z,100238.69
2022-09-06T00:56:01.116Z,100235.22
2022-09-06T00:58:28.233Z,100250.78
2022-09-06T01:00:54.832Z,100252.31
2022-09-06T01:03:24.336Z,100264.72
2022-09-06T01:06:22.485Z,100288.50
2022-09-06T01:09:16.512Z,100329.22
2022-09-06T01:12:09.010Z,100383.81
2022-09-06T01:14:41.419Z,100402.00
2022-09-06T01:17:14.294Z,100406.06
2022-09-06T01:20:09.594Z,100402.97
2022-09-06T01:23:05.727Z,100430.69
2022-09-06T01:25:35.052Z,100454.09
2022-09-06T01:28:25.705Z,100464.03
2022-09-06T01:31:01.911Z,100446.78
2022-09-06T01:33:34.390Z,100439.97
2022-09-06T01:36:05.339Z,100430.13
2022-09-06T01:38:31.919Z,100425.66
2022-09-06T01:40:58.346Z,100396.16
2022-09-06T01:43:29.455Z,100404.78
2022-09-06T01:46:29.949Z,100429.75
2022-09-06T01:49:02.343Z,100431.19
2022-09-06T01:52:09.032Z,100418.94
2022-09-06T01:55:18.343Z,100394.00
2022-09-06T01:57:51.652Z,100383.84
2022-09-06T02:00:20.662Z,100384.47
2022-09-06T02:03:08.743Z,100383.63
2022-09-06T02:05:41.786Z,100380.25
2022-09-06T02:08:13.143Z,100366.25
2022-09-06T02:11:03.578Z,100367.91
2022-09-06T02:13:36.358Z,100356.66
2022-09-06T02:16:05.845Z,100346.34
2022-09-06T02:18:43.831Z,100346.56
2022-09-06T02:21:14.916Z,100346.34
2022-09-06T02:23:44.094Z,100323.06
2022-09-06T02:26:19.021Z,100329.88
2022-09-06T02:28:45.828Z,100353.63
2022-09-06T02:31:35.380Z,100381.09
2022-09-06T02:34:02.364Z,100401.00
2022-09-06T02:36:30.766Z,100398.03
2022-09-06T02:38:59.587Z,100399.94
2022-09-06T02:41:27.896Z,100395.25
2022-09-06T02:43:54.391Z,100386.97
2022-09-06T02:46:20.901Z,100374.72
2022-09-06T02:48:47.411Z,100364.09
2022-09-06T02:51:13.869Z,100351.84
2022-09-06T02:53:40.304Z,100342.38
2022-09-06T02:56:06.728Z,100343.09
2022-09-06T02:58:33.181Z,100340.69
2022-09-06T03:00:59.662Z,100355.69
2022-09-06T03:03:27.406Z,100361.34
2022-09-06T03:05:54.965Z,100364.44
2022-09-06T03:08:25.674Z,100352.47
2022-09-06T03:10:54.559Z,100350.28
2022-09-06T03:13:21.314Z,100350.28
2022-09-06T03:15:54.148Z,100354.13
2022-09-06T03:18:20.707Z,100356.06
2022-09-06T03:20:49.569Z,100351.75
2022-09-06T03:23:16.531Z,100359.53
2022-09-06T03:25:43.321Z,100357.59
2022-09-06T03:28:09.727Z,100355.56
2022-09-06T03:30:36.575Z,100350.16
2022-09-06T03:33:03.173Z,100360.72
2022-09-06T03:35:29.580Z,100352.91
2022-09-06T03:37:56.107Z,100344.75
2022-09-06T03:40:22.479Z,100343.78
2022-09-06T03:42:48.990Z,100350.03
2022-09-06T03:45:15.527Z,100338.28
2022-09-06T03:47:41.908Z,100334.91
2022-09-06T03:50:08.722Z,100340.81
2022-09-06T03:52:35.130Z,100340.22
2022-09-06T03:55:01.571Z,100336.97
2022-09-06T03:57:27.984Z,100344.19
2022-09-06T03:59:54.394Z,100342.38
2022-09-06T04:02:20.899Z,100338.66
2022-09-06T04:04:47.342Z,100334.00
2022-09-06T04:07:13.807Z,100325.94
2022-09-06T04:09:40.244Z,100318.16
2022-09-06T04:12:06.764Z,100324.41
2022-09-06T04:14:33.200Z,100330.88
2022-09-06T04:16:59.613Z,100325.47
2022-09-06T04:19:26.047Z,100327.88
2022-09-06T04:21:52.454Z,100325.25
2022-09-06T04:24:18.868Z,100328.72
2022-09-06T04:26:45.278Z,100326.91
2022-09-06T04:29:11.783Z,100332.19
2022-09-06T04:31:38.371Z,100330.53
2022-09-06T04:34:04.867Z,100332.91
2022-09-06T04:36:31.267Z,100330.13
2022-09-06T04:38:57.769Z,100313.22
2022-09-06T04:41:24.171Z,100318.63
2022-09-06T04:43:50.626Z,100321.63
2022-09-06T04:46:19.776Z,100319.25
2022-09-06T04:48:47.109Z,100320.44
2022-09-06T04:51:13.574Z,100317.53
2022-09-06T04:53:40.145Z,100319.25
2022-09-06T04:56:06.875Z,100321.75
2022-09-06T04:58:33.279Z,100318.28
2022-09-06T05:00:59.741Z,100334.47
2022-09-06T05:03:26.195Z,100328.09
2022-09-06T05:05:52.595Z,100330.03
2022-09-06T05:08:19.188Z,100320.09
2022-09-06T05:10:45.594Z,100319.25
2022-09-06T05:13:11.990Z,100316.22
2022-09-06T05:15:38.491Z,100313.00
2022-09-06T05:18:06.620Z,100322.94
2022-09-06T05:20:33.181Z,100326.44
2022-09-06T05:22:59.690Z,100327.16
2022-09-06T05:25:26.110Z,100336.84
2022-09-06T05:27:52.489Z,100334.81
2022-09-06T05:30:19.685Z,100335.41
2022-09-06T05:32:46.082Z,100336.84
2022-09-06T05:35:12.476Z,100337.34
2022-09-06T05:37:38.951Z,100338.78
2022-09-06T05:40:05.821Z,100348.81
2022-09-06T05:42:32.290Z,100346.06
2022-09-06T05:44:58.688Z,100351.47
2022-09-06T05:47:25.083Z,100342.22
2022-09-06T05:49:52.063Z,100340.28
2022-09-06T05:52:19.791Z,100350.59
2022-09-06T05:54:46.170Z,100356.72
2022-09-06T05:57:12.573Z,100357.41
2022-09-06T05:59:38.989Z,100363.53
2022-09-06T06:02:07.449Z,100359.09
2022-09-06T06:04:34.327Z,100363.41
2022-09-06T06:07:01.608Z,100369.41
2022-09-06T06:09:27.997Z,100365.66
2022-09-06T06:11:54.442Z,100369.88
2022-09-06T06:14:20.867Z,100366.03
2022-09-06T06:16:47.363Z,100373.06
2022-09-06T06:19:14.424Z,100371.59
2022-09-06T06:21:40.897Z,100377.31
2022-09-06T06:24:07.590Z,100373.47
2022-09-06T06:26:35.876Z,100363.09
2022-09-06T06:29:02.488Z,100367.28
2022-09-06T06:31:33.443Z,100370.50
2022-09-06T06:34:02.856Z,100380.34
2022-09-06T06:36:33.790Z,100373.66
2022-09-06T06:39:01.713Z,100375.69
2022-09-06T06:41:30.950Z,100373.78
2022-09-06T06:43:59.486Z,100384.34
2022-09-06T06:46:29.669Z,100379.66
2022-09-06T06:48:56.132Z,100382.16
2022-09-06T06:51:25.310Z,100378.69
2022-09-06T06:53:52.753Z,100372.44
2022-09-06T06:56:27.931Z,100375.69
2022-09-06T06:58:57.786Z,100380.47
2022-09-06T07:01:26.337Z,100381.88
2022-09-06T07:03:53.124Z,100375.50
2022-09-06T07:06:21.207Z,100373.28
2022-09-06T07:08:48.191Z,100367.81
2022-09-06T07:11:18.639Z,100363.44
2022-09-06T07:13:46.948Z,100360.97
2022-09-06T07:16:19.478Z,100366.38
2022-09-06T07:18:46.271Z,100364.19
2022-09-06T07:26:31.854Z,100373.72
2022-09-06T07:29:04.759Z,100373.59
2022-09-06T07:34:19.364Z,100369.13
2022-09-06T07:36:45.850Z,100360.91
2022-09-06T07:39:12.337Z,100353.13
2022-09-06T07:41:38.781Z,100360.81
2022-09-06T07:44:05.162Z,100360.66
2022-09-06T07:46:31.666Z,100357.91
2022-09-06T07:48:58.157Z,100369.06
2022-09-06T07:51:24.651Z,100360.94
2022-09-06T07:54:06.926Z,100366.41
2022-09-06T07:56:39.584Z,100372.28
2022-09-06T07:59:06.546Z,100375.63
2022-09-06T08:01:35.329Z,100374.34
2022-09-06T08:04:04.975Z,100372.41
2022-09-06T08:09:19.943Z,100381.47
2022-09-06T08:11:46.504Z,100381.16
2022-09-06T08:14:12.938Z,100378.41
2022-09-06T08:16:39.479Z,100377.16
2022-09-06T08:19:08.766Z,100362.66
2022-09-06T08:21:35.587Z,100357.63
2022-09-06T08:24:04.709Z,100361.44
2022-09-06T08:26:32.614Z,100364.22
2022-09-06T08:29:01.400Z,100367.84
2022-09-06T08:31:30.330Z,100372.16
2022-09-06T08:33:58.080Z,100368.13
2022-09-06T08:36:31.435Z,100368.69
2022-09-06T08:38:59.362Z,100372.44
2022-09-06T08:41:51.370Z,100373.69
2022-09-06T08:47:21.519Z,100373.53
2022-09-06T08:50:00.851Z,100385.50
2022-09-06T08:52:32.331Z,100380.78
2022-09-06T08:55:23.409Z,100381.44
2022-09-06T08:58:11.591Z,100377.03
2022-09-06T09:00:38.793Z,100381.16
2022-09-06T09:03:16.828Z,100373.63
2022-09-06T09:05:47.546Z,100379.44
2022-09-06T09:08:22.084Z,100380.69
2022-09-06T09:10:52.090Z,100385.47
2022-09-06T09:13:30.674Z,100383.59
2022-09-06T09:15:57.325Z,100397.88
2022-09-06T09:18:28.018Z,100386.88
2022-09-06T09:20:54.653Z,100382.69
2022-09-06T09:23:21.273Z,100381.38
2022-09-06T09:25:49.810Z,100374.44
2022-09-06T09:28:19.470Z,100383.00
2022-09-06T09:30:53.596Z,100373.41
2022-09-06T09:33:38.845Z,100375.13
2022-09-06T09:36:08.170Z,100374.81
2022-09-06T09:38:46.260Z,100363.38
2022-09-06T09:41:31.965Z,100373.88
2022-09-06T09:44:15.946Z,100371.63
2022-09-06T09:46:42.551Z,100368.13
2022-09-06T09:49:14.571Z,100368.69
2022-09-06T09:51:43.153Z,100372.78
2022-09-06T09:54:12.083Z,100364.81
2022-09-06T09:56:52.784Z,100371.38
2022-09-06T09:59:27.873Z,100372.03
2022-09-06T10:02:01.385Z,100376.75
2022-09-06T10:07:11.974Z,100366.63
2022-09-06T10:09:42.064Z,100365.16
2022-09-06T10:12:08.501Z,100354.22
2022-09-06T10:15:03.639Z,100352.66
2022-09-06T10:17:49.149Z,100345.84
2022-09-06T10:20:16.431Z,100340.47
2022-09-06T10:23:06.772Z,100335.38
2022-09-06T10:25:48.999Z,100330.44
2022-09-06T10:28:26.838Z,100330.78
2022-09-06T10:31:22.268Z,100335.47
2022-09-06T10:34:01.936Z,100339.00
2022-09-06T10:36:37.487Z,100332.91
2022-09-06T10:39:18.529Z,100335.72
2022-09-06T10:42:27.106Z,100328.25
2022-09-06T10:45:20.885Z,100327.91
2022-09-06T10:47:57.548Z,100327.91
2022-09-06T10:50:32.969Z,100325.56
2022-09-06T10:53:09.326Z,100322.91
2022-09-06T10:55:40.125Z,100325.53
2022-09-06T11:00:47.327Z,100319.41
2022-09-06T11:06:20.097Z,100317.06
2022-09-06T11:08:53.542Z,100319.09
2022-09-06T11:11:40.285Z,100328.53
2022-09-06T11:14:12.313Z,100321.38
2022-09-06T11:16:48.247Z,100322.69
2022-09-06T11:19:22.576Z,100318.94
2022-09-06T11:22:07.548Z,100313.97
2022-09-06T11:25:16.946Z,100302.72
2022-09-06T11:27:47.377Z,100298.38
2022-09-06T11:30:15.985Z,100306.72
2022-09-06T11:32:48.827Z,100300.66
2022-09-06T11:35:28.051Z,100300.81
2022-09-06T11:38:02.378Z,100302.50
2022-09-06T11:40:36.876Z,100297.94
2022-09-06T11:43:03.717Z,100295.47
2022-09-06T11:45:41.210Z,100290.19
2022-09-06T11:48:35.150Z,100289.09
2022-09-06T11:51:06.300Z,100286.78
2022-09-06T11:53:54.780Z,100276.28
2022-09-06T11:56:42.973Z,100274.06
2022-09-06T11:59:21.625Z,100276.00
2022-09-06T12:02:06.455Z,100269.75
2022-09-06T12:05:03.814Z,100258.41
2022-09-06T12:07:32.017Z,100258.47
2022-09-06T12:10:02.077Z,100255.97
2022-09-06T12:12:48.590Z,100255.81
2022-09-06T12:15:51.579Z,100252.69
2022-09-06T12:18:48.799Z,100245.34
2022-09-06T12:21:37.047Z,100244.78
2022-09-06T12:24:05.319Z,100244.09
2022-09-06T12:26:55.282Z,100247.75
2022-09-06T12:29:26.877Z,100248.59
2022-09-06T12:32:01.675Z,100243.56
2022-09-06T12:34:34.562Z,100248.44
2022-09-06T12:37:04.981Z,100242.72
2022-09-06T12:39:31.997Z,100241.50
2022-09-06T12:42:12.578Z,100243.09
2022-09-06T12:44:45.420Z,100243.91
2022-09-06T12:47:17.622Z,100239.66
2022-09-06T12:49:44.123Z,100239.00
2022-09-06T12:52:14.282Z,100224.22
2022-09-06T12:54:47.358Z,100231.88
2022-09-06T12:57:22.998Z,100224.91
2022-09-06T12:59:50.709Z,100219.75
2022-09-06T13:02:24.141Z,100217.56
2022-09-06T13:04:54.971Z,100206.50
2022-09-06T13:07:24.296Z,100206.78
2022-09-06T13:09:55.393Z,100197.59
2022-09-06T13:12:26.695Z,100206.94
2022-09-06T13:14:56.351Z,100205.03
2022-09-06T13:17:31.832Z,100209.47
2022-09-06T13:19:58.326Z,100199.38
2022-09-06T13:22:38.804Z,100195.31
2022-09-06T13:25:06.303Z,100198.22
2022-09-06T13:27:39.369Z,100195.75
2022-09-06T13:30:09.071Z,100199.06
2022-09-06T13:32:45.209Z,100196.53
2022-09-06T13:35:23.839Z,100200.09
2022-09-06T13:37:50.467Z,100195.38
2022-09-06T13:41:06.765Z,100194.78
2022-09-06T13:43:28.515Z,100192.16
2022-09-06T13:46:05.293Z,100194.91
2022-09-06T13:48:32.476Z,100187.59
2022-09-06T13:50:59.405Z,100176.41
2022-09-06T13:53:26.715Z,100176.09
2022-09-06T13:55:53.185Z,100171.94
2022-09-06T13:58:19.582Z,100168.59
2022-09-06T14:00:46.858Z,100165.44
2022-09-06T14:03:22.395Z,100159.28
2022-09-06T14:05:48.826Z,100156.88
2022-09-06T14:08:15.273Z,100151.25
2022-09-06T14:10:41.667Z,100155.66
2022-09-06T14:13:08.569Z,100151.19
2022-09-06T14:15:35.092Z,100146.72
2022-09-06T14:18:01.607Z,100157.94
2022-09-06T14:20:28.630Z,100146.16
2022-09-06T14:22:55.068Z,100143.00
2022-09-06T14:25:21.533Z,100141.91
2022-09-06T14:27:48.626Z,100139.28
2022-09-06T14:30:15.471Z,100146.31
2022-09-06T14:32:41.884Z,100152.72
2022-09-06T14:35:08.632Z,100147.91
2022-09-06T14:37:35.471Z,100149.59
2022-09-06T14:40:01.992Z,100146.44
2022-09-06T14:42:28.529Z,100150.72
2022-09-06T14:44:54.959Z,100144.75
2022-09-06T14:47:22.037Z,100147.94
2022-09-06T14:49:48.443Z,100139.81
2022-09-06T14:52:14.868Z,100141.88
2022-09-06T14:54:41.256Z,100142.31
2022-09-06T14:57:07.674Z,100141.66
2022-09-06T14:59:34.275Z,100149.69
2022-09-06T15:02:00.753Z,100151.09
2022-09-06T15:04:27.569Z,100149.56
2022-09-06T15:06:54.302Z,100152.44
2022-09-06T15:09:20.826Z,100149.03
2022-09-06T15:11:50.551Z,100141.66
2022-09-06T15:14:29.538Z,100140.09
2022-09-06T15:16:59.465Z,100142.31
2022-09-06T15:19:28.256Z,100142.38
2022-09-06T15:21:56.244Z,100128.97
2022-09-06T15:24:22.760Z,100132.69
2022-09-06T15:26:49.201Z,100123.75
2022-09-06T15:29:16.617Z,100115.91
2022-09-06T15:31:43.427Z,100116.25
2022-09-06T15:34:10.497Z,100113.56
2022-09-06T15:36:37.754Z,100107.78
2022-09-06T15:39:05.986Z,100103.19
2022-09-06T15:41:35.692Z,100104.16
2022-09-06T15:44:10.498Z,100105.66
2022-09-06T15:46:46.052Z,100092.84
2022-09-06T15:49:16.122Z,100093.63
2022-09-06T15:51:42.882Z,100092.25
2022-09-06T15:54:11.695Z,100091.06
2022-09-06T15:56:38.555Z,100087.97
2022-09-06T15:59:05.280Z,100078.69
2022-09-06T16:01:33.928Z,100080.41
2022-09-06T16:04:05.721Z,100078.56
2022-09-06T16:06:38.439Z,100069.81
2022-09-06T16:09:10.865Z,100078.47
2022-09-06T16:11:37.586Z,100085.69
2022-09-06T16:14:06.976Z,100074.88
2022-09-06T16:16:34.933Z,100089.00
2022-09-06T16:19:02.416Z,100079.09
2022-09-06T16:21:32.134Z,100088.63
2022-09-06T16:24:04.040Z,100087.81
2022-09-06T16:26:33.102Z,100080.25
2022-09-06T16:29:00.505Z,100079.84
2022-09-06T16:31:28.310Z,100086.31
2022-09-06T16:33:56.232Z,100070.88
2022-09-06T16:36:23.020Z,100081.34
2022-09-06T16:38:50.183Z,100068.63
2022-09-06T16:41:20.699Z,100065.94
2022-09-06T16:43:49.276Z,100067.06
2022-09-06T16:46:16.266Z,100061.75
2022-09-06T16:48:42.747Z,100067.34
2022-09-06T16:51:13.589Z,100063.59
2022-09-06T16:53:42.127Z,100060.94
2022-09-06T16:56:10.057Z,100059.84
2022-09-06T16:58:37.011Z,100059.13
2022-09-06T17:01:03.525Z,100057.03
2022-09-06T17:03:30.022Z,100050.09
2022-09-06T17:05:56.410Z,100047.78
2022-09-06T17:08:23.049Z,100052.53
2022-09-06T17:10:50.185Z,100053.13
2022-09-06T17:13:16.607Z,100045.69
2022-09-06T17:16:01.345Z,100043.13
2022-09-06T17:18:27.838Z,100044.25
2022-09-06T17:21:00.740Z,100049.81
2022-09-06T17:23:28.608Z,100044.50
2022-09-06T17:25:55.077Z,100037.09
2022-09-06T17:28:21.878Z,100038.22
2022-09-06T17:30:48.337Z,100036.31
2022-09-06T17:33:16.982Z,100038.28
2022-09-06T17:35:45.141Z,100027.31
2022-09-06T17:38:13.670Z,100029.75
2022-09-06T17:40:40.449Z,100023.22
2022-09-06T17:43:06.858Z,100022.66
2022-09-06T17:45:42.615Z,100033.28
2022-09-06T17:48:09.325Z,100026.22
2022-09-06T17:50:35.816Z,100019.03
2022-09-06T17:53:02.822Z,100022.41
2022-09-06T17:55:29.317Z,100021.97
2022-09-06T17:57:57.027Z,100031.19
2022-09-06T18:00:26.363Z,100025.19
2022-09-06T18:02:53.080Z,100022.38
2022-09-06T18:05:19.629Z,100025.53
2022-09-06T18:07:46.135Z,100027.63
2022-09-06T18:10:15.018Z,100019.69
2022-09-06T18:12:42.375Z,100026.13
2022-09-06T18:15:09.562Z,100028.88
2022-09-06T18:17:36.330Z,100027.94
2022-09-06T18:20:04.439Z,100028.78
2022-09-06T18:22:31.040Z,100022.53
2022-09-06T18:24:58.509Z,100023.91
2022-09-06T18:27:25.760Z,100033.63
2022-09-06T18:29:52.197Z,100036.84
2022-09-06T18:32:18.587Z,100033.56
2022-09-06T18:34:45.076Z,100033.63
2022-09-06T18:37:12.107Z,100030.66
2022-09-06T18:39:39.533Z,100036.50
2022-09-06T18:42:11.038Z,100042.75
2022-09-06T18:44:38.113Z,100040.25
2022-09-06T18:47:07.605Z,100040.97
2022-09-06T18:49:34.510Z,100045.78
2022-09-06T18:52:02.903Z,100052.19
2022-09-06T18:54:30.535Z,100052.72
2022-09-06T18:56:57.016Z,100053.22
2022-09-06T18:59:23.938Z,100056.56
2022-09-06T19:01:50.843Z,100054.44
2022-09-06T19:04:17.381Z,100054.94
2022-09-06T19:06:44.955Z,100054.28
2022-09-06T19:09:14.067Z,100051.31
2022-09-06T19:11:42.700Z,100045.31
2022-09-06T19:14:09.383Z,100053.50
2022-09-06T19:16:36.103Z,100058.47
2022-09-06T19:19:05.102Z,100052.81
2022-09-06T19:21:32.369Z,100058.69
2022-09-06T19:24:01.520Z,100060.53
2022-09-06T19:26:32.141Z,100057.03
2022-09-06T19:29:01.195Z,100051.72
2022-09-06T19:31:30.681Z,100043.22
2022-09-06T19:33:57.503Z,100045.06
2022-09-06T19:36:26.265Z,100044.22
2022-09-06T19:39:04.560Z,100044.25
2022-09-06T19:41:36.734Z,100043.41
2022-09-06T19:44:05.822Z,100034.78
2022-09-06T19:46:32.947Z,100037.44
2022-09-06T19:49:00.505Z,100036.09
2022-09-06T19:51:27.060Z,100029.44
2022-09-06T19:53:57.637Z,100034.75
2022-09-06T19:56:26.586Z,100028.44
2022-09-06T19:58:55.357Z,100028.75
2022-09-06T20:01:22.475Z,100019.44
2022-09-06T20:03:49.189Z,100012.09
2022-09-06T20:06:15.660Z,100018.28
2022-09-06T20:08:42.242Z,100015.78
2022-09-06T20:11:10.280Z,100010.63
2022-09-06T20:13:37.826Z,100007.44
2022-09-06T20:16:07.796Z,100005.13
2022-09-06T20:18:35.400Z,100005.28
2022-09-06T20:21:02.511Z,100008.91
2022-09-06T20:23:29.973Z,100008.09
2022-09-06T20:26:13.475Z,100018.22
2022-09-06T20:28:39.919Z,100018.22
2022-09-06T20:31:09.581Z,100008.75
2022-09-06T20:33:36.559Z,100004.53
2022-09-06T20:36:05.400Z,100002.03
2022-09-06T20:38:33.343Z,99992.75
2022-09-06T20:41:05.814Z,99995.22
2022-09-06T20:43:36.444Z,100006.16
2022-09-06T20:46:05.582Z,100005.50
2022-09-06T20:48:33.652Z,99999.84
2022-09-06T20:51:02.159Z,99993.03
2022-09-06T20:53:29.883Z,100006.31
2022-09-06T20:56:05.399Z,100006.66
2022-09-06T20:58:32.636Z,100027.44
2022-09-06T21:00:59.964Z,100025.28
2022-09-06T21:03:26.916Z,100027.22
2022-09-06T21:05:54.022Z,100028.72
2022-09-06T21:08:20.846Z,100021.44
2022-09-06T21:10:47.402Z,100019.94
2022-09-06T21:13:13.954Z,100026.38
2022-09-06T21:15:43.543Z,100023.28
2022-09-06T21:18:10.050Z,100014.63
2022-09-06T21:20:36.609Z,100015.19
2022-09-06T21:23:03.169Z,100021.00
2022-09-06T21:25:29.720Z,100023.06
2022-09-06T21:27:56.110Z,100032.06
2022-09-06T21:30:22.501Z,100029.72
2022-09-06T21:32:49.083Z,100036.84
2022-09-06T21:35:15.619Z,100041.59
2022-09-06T21:37:42.224Z,100042.44
2022-09-06T21:40:09.377Z,100042.66
2022-09-06T21:42:35.843Z,100038.41
2022-09-06T21:45:02.254Z,100041.16
2022-09-06T21:47:30.398Z,100039.34
2022-09-06T21:49:57.245Z,100031.38
2022-09-06T21:52:23.822Z,100031.84
2022-09-06T21:54:50.258Z,100026.16
2022-09-06T21:57:17.131Z,100017.22
2022-09-06T21:59:43.512Z,100020.53
2022-09-06T22:02:10.176Z,100028.94
2022-09-06T22:04:36.798Z,100037.06
2022-09-06T22:07:03.959Z,100043.50
2022-09-06T22:09:30.445Z,100040.69
2022-09-06T22:11:56.856Z,100038.88
2022-09-06T22:14:23.322Z,100035.38
2022-09-06T22:16:51.770Z,100030.91
2022-09-06T22:19:18.174Z,100030.63
2022-09-06T22:21:45.432Z,100022.50
2022-09-06T22:24:12.750Z,100017.50
2022-09-06T22:26:40.557Z,100025.78
2022-09-06T22:29:08.996Z,100033.19
2022-09-06T22:31:36.486Z,100028.47
2022-09-06T22:34:04.174Z,100013.25
2022-09-06T22:36:30.918Z,100020.22
2022-09-06T22:38:57.856Z,100014.69
2022-09-06T22:41:29.046Z,100016.38
2022-09-06T22:43:56.387Z,100014.03
2022-09-06T22:46:24.005Z,100018.94
2022-09-06T22:48:50.536Z,100014.91
2022-09-06T22:51:17.051Z,100011.56
2022-09-06T22:53:43.523Z,100010.06
2022-09-06T22:56:10.503Z,100004.75
2022-09-06T22:58:36.979Z,100009.22
2022-09-06T23:01:13.692Z,100015.50
2022-09-06T23:03:41.779Z,100016.81
2022-09-06T23:06:08.547Z,99996.44
2022-09-06T23:08:36.895Z,99996.59
2022-09-06T23:11:06.841Z,99995.47
2022-09-06T23:13:34.097Z,99991.31
2022-09-06T23:16:08.434Z,99989.06
2022-09-06T23:18:34.998Z,99985.59
2022-09-06T23:21:06.265Z,99984.03
2022-09-06T23:23:33.342Z,99994.25
2022-09-06T23:26:08.138Z,99983.81
2022-09-06T23:28:35.397Z,99986.06
2022-09-06T23:31:04.151Z,99978.19
2022-09-06T23:33:31.324Z,99968.88
2022-09-06T23:35:58.848Z,99955.91
2022-09-06T23:38:25.429Z,99968.06
2022-09-06T23:40:52.087Z,99968.91
2022-09-06T23:43:18.606Z,99966.25
2022-09-06T23:45:45.023Z,99976.84
2022-09-06T23:48:11.404Z,99968.91
2022-09-06T23:50:37.825Z,99970.19
2022-09-06T23:53:04.257Z,99974.78
2022-09-06T23:55:30.685Z,99970.47
2022-09-06T23:57:57.085Z,99961.84
